createdAt,value
2023-04-06T00:00:41.266Z,0.00
2023-04-06T00:01:41.335Z,0.00
2023-04-06T00:02:41.279Z,0.00
2023-04-06T00:03:41.351Z,0.00
2023-04-06T00:04:41.304Z,0.00
2023-04-06T00:05:41.331Z,0.00
2023-04-06T00:06:41.205Z,0.00
2023-04-06T00:07:41.205Z,0.00
2023-04-06T00:08:41.288Z,0.00
2023-04-06T00:09:41.190Z,0.00
2023-04-06T00:10:41.198Z,0.00
2023-04-06T00:11:41.229Z,0.00
2023-04-06T00:12:41.219Z,0.00
2023-04-06T00:13:41.267Z,0.00
2023-04-06T00:14:41.146Z,0.00
2023-04-06T00:15:41.127Z,0.00
2023-04-06T00:16:41.158Z,0.00
2023-04-06T00:17:41.142Z,0.00
2023-04-06T00:18:41.143Z,0.00
2023-04-06T00:19:41.083Z,0.00
2023-04-06T00:20:41.106Z,0.00
2023-04-06T00:21:41.113Z,0.00
2023-04-06T00:22:41.101Z,0.00
2023-04-06T00:23:41.079Z,0.00
2023-04-06T00:24:41.057Z,0.00
2023-04-06T00:25:41.042Z,0.00
2023-04-06T00:26:41.010Z,0.00
2023-04-06T00:27:40.996Z,0.00
2023-04-06T00:28:41.016Z,0.00
2023-04-06T00:29:41.037Z,0.00
2023-04-06T00:30:41.334Z,0.00
2023-04-06T00:31:41.044Z,0.00
2023-04-06T00:32:41.006Z,0.00
2023-04-06T00:33:40.961Z,0.00
2023-04-06T00:34:40.935Z,0.00
2023-04-06T00:35:40.942Z,0.00
2023-04-06T00:36:41.014Z,0.00
2023-04-06T00:37:40.957Z,0.00
2023-04-06T00:38:40.939Z,0.00
2023-04-06T00:39:40.882Z,0.00
2023-04-06T00:40:40.902Z,0.00
2023-04-06T00:41:40.888Z,0.00
2023-04-06T00:42:40.855Z,0.00
2023-04-06T00:43:40.851Z,0.00
2023-04-06T00:44:40.965Z,0.00
2023-04-06T00:45:40.861Z,0.00
2023-04-06T00:46:45.832Z,0.00
2023-04-06T00:47:40.877Z,0.00
2023-04-06T00:48:40.887Z,0.00
2023-04-06T00:49:40.845Z,0.00
2023-04-06T00:50:40.848Z,0.00
2023-04-06T00:51:40.779Z,0.00
2023-04-06T00:52:40.769Z,0.00
2023-04-06T00:53:40.809Z,0.00
2023-04-06T00:54:40.735Z,0.00
2023-04-06T00:55:40.716Z,0.00
2023-04-06T00:56:40.818Z,0.00
2023-04-06T00:57:40.739Z,0.00
2023-04-06T00:58:40.708Z,0.00
2023-04-06T00:59:40.864Z,0.00
2023-04-06T01:00:40.696Z,0.00
2023-04-06T01:01:40.713Z,0.00
2023-04-06T01:02:40.694Z,0.00
2023-04-06T01:03:40.670Z,0.00
2023-04-06T01:04:40.697Z,0.00
2023-04-06T01:05:40.747Z,0.00
2023-04-06T01:06:40.619Z,0.00
2023-04-06T01:07:40.642Z,0.00
2023-04-06T01:08:40.632Z,0.00
2023-04-06T01:09:40.610Z,0.00
2023-04-06T01:10:40.621Z,0.00
2023-04-06T01:11:40.564Z,0.00
2023-04-06T01:12:40.550Z,0.00
2023-04-06T01:13:40.561Z,0.00
2023-04-06T01:14:40.603Z,0.00
2023-04-06T01:15:40.588Z,0.00
2023-04-06T01:16:40.558Z,0.00
2023-04-06T01:17:40.581Z,0.00
2023-04-06T01:18:40.506Z,0.00
2023-04-06T01:19:40.501Z,0.00
2023-04-06T01:20:40.512Z,0.00
2023-04-06T01:21:40.511Z,0.00
2023-04-06T01:22:40.461Z,0.00
2023-04-06T01:23:40.469Z,0.00
2023-04-06T01:24:40.435Z,0.00
2023-04-06T01:25:40.436Z,0.00
2023-04-06T01:26:40.575Z,0.00
2023-04-06T01:27:40.420Z,0.00
2023-04-06T01:28:40.481Z,0.00
2023-04-06T01:29:40.450Z,0.00
2023-04-06T01:30:40.425Z,0.00
2023-04-06T01:31:40.421Z,0.00
2023-04-06T01:32:40.442Z,0.00
2023-04-06T01:33:40.397Z,0.00
2023-04-06T01:34:40.344Z,0.00
2023-04-06T01:35:40.414Z,0.00
2023-04-06T01:36:40.309Z,0.00
2023-04-06T01:37:40.348Z,0.00
2023-04-06T01:38:40.289Z,0.00
2023-04-06T01:39:40.312Z,0.00
2023-04-06T01:40:40.274Z,0.00
2023-04-06T01:41:40.290Z,0.00
2023-04-06T01:42:40.361Z,0.00
2023-04-06T01:43:40.253Z,0.00
2023-04-06T01:44:40.249Z,0.00
2023-04-06T01:45:40.243Z,0.00
2023-04-06T01:46:44.853Z,0.00
2023-04-06T01:47:40.289Z,0.00
2023-04-06T01:48:40.237Z,0.00
2023-04-06T01:49:40.199Z,0.00
2023-04-06T01:50:40.274Z,0.00
2023-04-06T01:51:40.171Z,0.00
2023-04-06T01:52:40.159Z,0.00
2023-04-06T01:53:40.169Z,0.00
2023-04-06T01:54:40.182Z,0.00
2023-04-06T01:55:40.140Z,0.00
2023-04-06T01:56:40.155Z,0.00
2023-04-06T01:57:40.141Z,0.00
2023-04-06T01:58:40.097Z,0.00
2023-04-06T01:59:40.165Z,0.00
2023-04-06T02:00:40.123Z,0.00
2023-04-06T02:01:40.127Z,0.00
2023-04-06T02:02:40.101Z,0.00
2023-04-06T02:03:40.083Z,0.00
2023-04-06T02:04:40.055Z,0.00
2023-04-06T02:05:40.025Z,0.00
2023-04-06T02:06:40.017Z,0.00
2023-04-06T02:07:40.011Z,0.00
2023-04-06T02:08:40.037Z,0.00
2023-04-06T02:09:39.986Z,0.00
2023-04-06T02:10:40.020Z,0.00
2023-04-06T02:11:39.999Z,0.00
2023-04-06T02:12:40.042Z,0.00
2023-04-06T02:13:40.013Z,0.00
2023-04-06T02:14:39.926Z,0.00
2023-04-06T02:15:39.951Z,0.00
2023-04-06T02:16:40.057Z,0.00
2023-04-06T02:17:40.031Z,0.00
2023-04-06T02:18:40.014Z,0.00
2023-04-06T02:19:39.904Z,0.00
2023-04-06T02:20:39.948Z,0.00
2023-04-06T02:21:39.867Z,0.00
2023-04-06T02:22:39.854Z,0.00
2023-04-06T02:23:39.849Z,0.00
2023-04-06T02:24:39.878Z,0.00
2023-04-06T02:25:39.939Z,0.00
2023-04-06T02:26:39.844Z,0.00
2023-04-06T02:27:39.852Z,0.00
2023-04-06T02:28:39.791Z,0.00
2023-04-06T02:29:39.849Z,0.00
2023-04-06T02:30:39.785Z,0.00
2023-04-06T02:31:39.804Z,0.00
2023-04-06T02:32:39.853Z,0.00
2023-04-06T02:33:39.778Z,0.00
2023-04-06T02:34:39.752Z,0.00
2023-04-06T02:35:39.771Z,0.00
2023-04-06T02:36:39.795Z,0.00
2023-04-06T02:37:39.713Z,0.00
2023-04-06T02:38:39.737Z,0.00
2023-04-06T02:39:39.755Z,0.00
2023-04-06T02:40:39.697Z,0.00
2023-04-06T02:41:39.690Z,0.00
2023-04-06T02:42:39.662Z,0.00
2023-04-06T02:43:39.641Z,0.00
2023-04-06T02:44:39.893Z,0.00
2023-04-06T02:45:39.657Z,0.00
2023-04-06T02:46:39.648Z,0.00
2023-04-06T02:47:39.673Z,0.00
2023-04-06T02:48:39.627Z,0.00
2023-04-06T02:49:39.581Z,0.00
2023-04-06T02:50:39.623Z,0.00
2023-04-06T02:51:39.566Z,0.00
2023-04-06T02:52:39.576Z,0.00
2023-04-06T02:53:39.596Z,0.00
2023-04-06T02:54:39.565Z,0.00
2023-04-06T02:55:39.532Z,0.00
2023-04-06T02:56:39.570Z,0.00
2023-04-06T02:57:39.595Z,0.00
2023-04-06T02:58:39.557Z,0.00
2023-04-06T02:59:39.624Z,0.00
2023-04-06T03:00:39.474Z,0.00
2023-04-06T03:01:39.567Z,0.00
2023-04-06T03:02:39.610Z,0.00
2023-04-06T03:03:39.648Z,0.00
2023-04-06T03:04:39.530Z,0.00
2023-04-06T03:05:39.438Z,0.00
2023-04-06T03:06:39.455Z,0.00
2023-04-06T03:07:39.498Z,0.00
2023-04-06T03:08:39.465Z,0.00
2023-04-06T03:09:39.480Z,0.00
2023-04-06T03:10:39.401Z,0.00
2023-04-06T03:11:39.390Z,0.00
2023-04-06T03:12:39.530Z,0.00
2023-04-06T03:13:39.376Z,0.00
2023-04-06T03:14:39.420Z,0.00
2023-04-06T03:15:39.388Z,0.00
2023-04-06T03:16:39.359Z,0.00
2023-04-06T03:17:39.387Z,0.00
2023-04-06T03:18:39.337Z,0.00
2023-04-06T03:19:39.497Z,0.00
2023-04-06T03:20:39.452Z,0.00
2023-04-06T03:21:46.960Z,0.00
2023-04-06T03:22:39.291Z,0.00
2023-04-06T03:23:39.242Z,0.00
2023-04-06T03:24:39.248Z,0.00
2023-04-06T03:25:39.228Z,0.00
2023-04-06T03:26:39.308Z,0.00
2023-04-06T03:27:39.203Z,0.00
2023-04-06T03:28:39.192Z,0.00
2023-04-06T03:29:39.217Z,0.00
2023-04-06T03:30:39.338Z,0.00
2023-04-06T03:31:39.268Z,0.00
2023-04-06T03:32:39.228Z,0.00
2023-04-06T03:33:39.507Z,0.00
2023-04-06T03:34:39.261Z,0.00
2023-04-06T03:35:39.208Z,0.00
2023-04-06T03:36:39.111Z,0.00
2023-04-06T03:37:39.177Z,0.00
2023-04-06T03:38:41.236Z,0.00
2023-04-06T03:39:39.340Z,0.00
2023-04-06T03:40:39.105Z,0.00
2023-04-06T03:41:39.076Z,0.00
2023-04-06T03:42:39.074Z,0.00
2023-04-06T03:43:39.080Z,0.00
2023-04-06T03:44:39.065Z,0.00
2023-04-06T03:45:39.017Z,0.00
2023-04-06T03:46:39.109Z,0.00
2023-04-06T03:47:39.087Z,0.00
2023-04-06T03:48:39.094Z,0.00
2023-04-06T03:49:40.566Z,0.00
2023-04-06T03:50:38.983Z,0.00
2023-04-06T03:51:39.016Z,0.00
2023-04-06T03:52:39.193Z,0.00
2023-04-06T03:53:38.973Z,0.00
2023-04-06T03:54:38.966Z,0.00
2023-04-06T03:55:38.932Z,0.00
2023-04-06T03:56:38.945Z,0.00
2023-04-06T03:57:38.972Z,0.00
2023-04-06T03:58:38.924Z,0.00
2023-04-06T03:59:39.045Z,0.00
2023-04-06T04:00:38.914Z,0.00
2023-04-06T04:01:38.916Z,0.00
2023-04-06T04:02:38.958Z,0.00
2023-04-06T04:03:38.991Z,0.00
2023-04-06T04:04:39.141Z,0.00
2023-04-06T04:05:38.829Z,0.00
2023-04-06T04:06:38.810Z,0.00
2023-04-06T04:07:38.816Z,0.00
2023-04-06T04:08:39.000Z,0.00
2023-04-06T04:09:38.820Z,0.00
2023-04-06T04:10:38.914Z,0.00
2023-04-06T04:11:38.794Z,0.00
2023-04-06T04:12:38.870Z,0.00
2023-04-06T04:13:38.867Z,0.00
2023-04-06T04:14:39.578Z,0.00
2023-04-06T04:15:38.796Z,0.00
2023-04-06T04:16:38.876Z,0.00
2023-04-06T04:17:38.770Z,0.00
2023-04-06T04:18:38.866Z,0.00
2023-04-06T04:19:38.687Z,0.00
2023-04-06T04:20:38.908Z,0.00
2023-04-06T04:21:38.842Z,0.00
2023-04-06T04:22:38.863Z,0.00
2023-04-06T04:23:38.673Z,0.00
2023-04-06T04:24:38.822Z,0.00
2023-04-06T04:25:38.698Z,0.00
2023-04-06T04:26:38.609Z,0.00
2023-04-06T04:27:38.658Z,0.00
2023-04-06T04:28:38.625Z,0.00
2023-04-06T04:29:38.604Z,0.00
2023-04-06T04:30:38.599Z,0.00
2023-04-06T04:31:38.658Z,0.00
2023-04-06T04:32:40.761Z,0.00
2023-04-06T04:33:38.616Z,0.00
2023-04-06T04:34:38.904Z,0.00
2023-04-06T04:35:38.587Z,0.00
2023-04-06T04:36:38.597Z,0.00
2023-04-06T04:37:38.559Z,0.00
2023-04-06T04:38:38.530Z,0.00
2023-04-06T04:39:38.497Z,0.00
2023-04-06T04:40:38.531Z,0.00
2023-04-06T04:41:38.463Z,0.00
2023-04-06T04:42:38.454Z,0.00
2023-04-06T04:43:38.561Z,0.00
2023-04-06T04:44:38.585Z,0.00
2023-04-06T04:45:38.453Z,0.00
2023-04-06T04:46:38.507Z,0.00
2023-04-06T04:47:39.437Z,0.00
2023-04-06T04:48:39.869Z,0.00
2023-04-06T04:49:38.400Z,0.00
2023-04-06T04:50:38.403Z,0.00
2023-04-06T04:51:38.403Z,0.00
2023-04-06T04:52:38.387Z,0.00
2023-04-06T04:53:38.582Z,0.00
2023-04-06T04:54:38.388Z,0.00
2023-04-06T04:55:38.447Z,0.00
2023-04-06T04:56:38.362Z,0.00
2023-04-06T04:57:38.482Z,0.00
2023-04-06T04:58:38.366Z,0.00
2023-04-06T04:59:38.567Z,0.00
2023-04-06T05:00:38.332Z,0.00
2023-04-06T05:01:51.703Z,0.00
2023-04-06T05:02:39.355Z,0.00
2023-04-06T05:03:39.248Z,0.00
2023-04-06T05:04:38.309Z,0.00
2023-04-06T05:05:38.232Z,0.00
2023-04-06T05:06:38.317Z,0.00
2023-04-06T05:07:38.472Z,0.00
2023-04-06T05:08:38.224Z,0.00
2023-04-06T05:09:38.205Z,0.00
2023-04-06T05:10:38.429Z,0.00
2023-04-06T05:11:38.219Z,0.00
2023-04-06T05:12:38.181Z,0.00
2023-04-06T05:13:38.240Z,0.00
2023-04-06T05:14:38.330Z,0.00
2023-04-06T05:15:38.162Z,0.00
2023-04-06T05:16:38.256Z,0.00
2023-04-06T05:17:38.173Z,0.00
2023-04-06T05:18:38.162Z,0.00
2023-04-06T05:19:38.156Z,0.00
2023-04-06T05:20:38.137Z,0.00
2023-04-06T05:21:38.106Z,0.00
2023-04-06T05:22:38.089Z,0.00
2023-04-06T05:23:38.055Z,0.00
2023-04-06T05:24:38.060Z,0.00
2023-04-06T05:25:38.068Z,0.00
2023-04-06T05:26:38.081Z,0.00
2023-04-06T05:27:38.020Z,0.00
2023-04-06T05:28:38.008Z,0.00
2023-04-06T05:29:38.056Z,0.00
2023-04-06T05:30:38.000Z,0.00
2023-04-06T05:31:38.114Z,0.00
2023-04-06T05:32:38.213Z,0.00
2023-04-06T05:33:37.999Z,0.00
2023-04-06T05:34:38.009Z,0.00
2023-04-06T05:35:38.031Z,0.00
2023-04-06T05:36:37.924Z,0.00
2023-04-06T05:37:37.967Z,0.00
2023-04-06T05:38:37.942Z,0.00
2023-04-06T05:39:37.887Z,0.00
2023-04-06T05:40:37.874Z,0.00
2023-04-06T05:41:37.877Z,0.00
2023-04-06T05:42:37.919Z,0.00
2023-04-06T05:43:37.850Z,0.00
2023-04-06T05:44:37.954Z,0.00
2023-04-06T05:45:37.914Z,0.00
2023-04-06T05:46:37.997Z,0.00
2023-04-06T05:47:37.868Z,0.00
2023-04-06T05:48:37.839Z,0.00
2023-04-06T05:49:37.841Z,0.00
2023-04-06T05:50:37.802Z,0.00
2023-04-06T05:51:37.772Z,0.00
2023-04-06T05:52:37.769Z,0.00
2023-04-06T05:53:37.767Z,0.00
2023-04-06T05:54:37.774Z,0.00
2023-04-06T05:55:37.858Z,0.00
2023-04-06T05:56:37.754Z,0.00
2023-04-06T05:57:37.719Z,0.00
2023-04-06T05:58:37.706Z,0.00
2023-04-06T05:59:37.829Z,0.00
2023-04-06T06:00:37.696Z,0.00
2023-04-06T06:01:37.700Z,0.00
2023-04-06T06:02:37.846Z,0.00
2023-04-06T06:03:37.655Z,0.00
2023-04-06T06:04:37.763Z,0.00
2023-04-06T06:05:37.699Z,0.00
2023-04-06T06:06:37.615Z,0.00
2023-04-06T06:07:37.636Z,0.00
2023-04-06T06:08:37.591Z,0.00
2023-04-06T06:09:37.597Z,0.00
2023-04-06T06:10:37.619Z,0.00
2023-04-06T06:11:37.600Z,0.00
2023-04-06T06:12:37.606Z,0.00
2023-04-06T06:13:37.605Z,0.00
2023-04-06T06:14:37.527Z,0.00
2023-04-06T06:15:37.592Z,0.00
2023-04-06T06:16:48.523Z,0.00
2023-04-06T06:17:39.117Z,0.00
2023-04-06T06:18:37.497Z,0.00
2023-04-06T06:19:37.499Z,0.00
2023-04-06T06:20:37.490Z,0.00
2023-04-06T06:21:37.485Z,0.00
2023-04-06T06:22:37.454Z,0.00
2023-04-06T06:23:37.493Z,0.00
2023-04-06T06:24:37.415Z,0.00
2023-04-06T06:25:37.414Z,0.00
2023-04-06T06:26:37.410Z,0.00
2023-04-06T06:27:37.378Z,0.00
2023-04-06T06:28:37.408Z,0.00
2023-04-06T06:29:37.458Z,0.00
2023-04-06T06:30:37.449Z,0.00
2023-04-06T06:31:37.424Z,0.00
2023-04-06T06:32:37.424Z,0.00
2023-04-06T06:33:37.350Z,0.00
2023-04-06T06:34:37.374Z,0.00
2023-04-06T06:35:37.353Z,0.00
2023-04-06T06:36:37.378Z,0.00
2023-04-06T06:37:37.307Z,0.00
2023-04-06T06:38:37.274Z,0.00
2023-04-06T06:39:37.318Z,0.00
2023-04-06T06:40:37.338Z,0.00
2023-04-06T06:41:37.274Z,0.00
2023-04-06T06:42:37.286Z,0.00
2023-04-06T06:43:37.288Z,0.00
2023-04-06T06:44:37.272Z,0.00
2023-04-06T06:45:37.349Z,0.00
2023-04-06T06:46:37.211Z,0.00
2023-04-06T06:47:37.263Z,0.00
2023-04-06T06:48:37.184Z,0.00
2023-04-06T06:49:37.238Z,0.00
2023-04-06T06:50:37.226Z,0.00
2023-04-06T06:51:37.232Z,0.00
2023-04-06T06:52:37.168Z,0.00
2023-04-06T06:53:37.170Z,0.00
2023-04-06T06:54:37.119Z,0.00
2023-04-06T06:55:37.219Z,0.00
2023-04-06T06:56:37.130Z,0.00
2023-04-06T06:57:37.113Z,0.00
2023-04-06T06:58:37.130Z,0.00
2023-04-06T06:59:37.155Z,0.00
2023-04-06T07:00:37.174Z,0.00
2023-04-06T07:01:37.094Z,0.00
2023-04-06T07:02:37.049Z,0.00
2023-04-06T07:03:37.082Z,0.00
2023-04-06T07:04:37.191Z,0.00
2023-04-06T07:05:38.451Z,0.00
2023-04-06T07:06:36.993Z,0.00
2023-04-06T07:07:36.973Z,0.00
2023-04-06T07:08:37.015Z,0.00
2023-04-06T07:09:36.995Z,0.00
2023-04-06T07:10:36.939Z,0.00
2023-04-06T07:11:36.946Z,0.00
2023-04-06T07:12:36.939Z,0.00
2023-04-06T07:13:36.907Z,0.00
2023-04-06T07:14:36.888Z,0.00
2023-04-06T07:15:36.913Z,0.00
2023-04-06T07:16:41.961Z,0.00
2023-04-06T07:17:37.020Z,0.00
2023-04-06T07:18:36.865Z,0.00
2023-04-06T07:19:36.873Z,0.00
2023-04-06T07:20:36.816Z,0.00
2023-04-06T07:21:36.832Z,0.00
2023-04-06T07:22:36.832Z,0.00
2023-04-06T07:23:36.808Z,0.00
2023-04-06T07:24:36.969Z,0.00
2023-04-06T07:25:36.834Z,0.00
2023-04-06T07:26:36.834Z,0.00
2023-04-06T07:27:36.810Z,0.00
2023-04-06T07:28:36.782Z,0.00
2023-04-06T07:29:36.742Z,0.00
2023-04-06T07:30:37.109Z,0.00
2023-04-06T07:31:36.912Z,0.00
2023-04-06T07:32:36.848Z,0.00
2023-04-06T07:33:36.700Z,0.00
2023-04-06T07:34:37.324Z,0.00
2023-04-06T07:35:36.719Z,0.00
2023-04-06T07:36:36.728Z,0.00
2023-04-06T07:37:36.638Z,0.00
2023-04-06T07:38:36.624Z,0.00
2023-04-06T07:39:36.667Z,0.00
2023-04-06T07:40:36.643Z,0.10
2023-04-06T07:41:36.601Z,0.10
2023-04-06T07:42:36.625Z,0.10
2023-04-06T07:43:36.606Z,0.10
2023-04-06T07:44:36.612Z,0.10
2023-04-06T07:45:36.657Z,0.10
2023-04-06T07:46:36.625Z,0.10
2023-04-06T07:47:36.576Z,0.20
2023-04-06T07:48:36.659Z,0.10
2023-04-06T07:49:36.502Z,0.10
2023-04-06T07:50:36.502Z,0.10
2023-04-06T07:51:36.537Z,0.10
2023-04-06T07:52:38.378Z,0.00
2023-04-06T07:53:36.470Z,0.10
2023-04-06T07:54:36.492Z,0.00
2023-04-06T07:55:36.460Z,0.10
2023-04-06T07:56:36.481Z,0.10
2023-04-06T07:57:36.433Z,0.10
2023-04-06T07:58:36.425Z,0.10
2023-04-06T07:59:36.475Z,0.10
2023-04-06T08:00:36.454Z,0.20
2023-04-06T08:01:36.428Z,0.20
2023-04-06T08:02:36.537Z,0.20
2023-04-06T08:03:36.560Z,0.20
2023-04-06T08:04:36.410Z,0.20
2023-04-06T08:05:36.353Z,0.30
2023-04-06T08:06:36.360Z,0.30
2023-04-06T08:07:36.345Z,0.30
2023-04-06T08:08:36.318Z,0.40
2023-04-06T08:09:36.363Z,0.40
2023-04-06T08:10:36.334Z,0.40
2023-04-06T08:11:36.276Z,0.40
2023-04-06T08:12:36.403Z,0.40
2023-04-06T08:13:36.289Z,0.50
2023-04-06T08:14:36.268Z,0.40
2023-04-06T08:15:36.337Z,0.50
2023-04-06T08:16:40.895Z,0.50
2023-04-06T08:17:36.299Z,0.60
2023-04-06T08:18:36.254Z,0.60
2023-04-06T08:19:36.194Z,0.50
2023-04-06T08:20:36.247Z,0.30
2023-04-06T08:21:36.201Z,0.40
2023-04-06T08:22:43.579Z,0.40
2023-04-06T08:23:36.188Z,0.30
2023-04-06T08:24:36.138Z,0.50
2023-04-06T08:25:36.127Z,0.60
2023-04-06T08:26:36.117Z,0.60
2023-04-06T08:27:36.123Z,0.80
2023-04-06T08:28:36.182Z,0.70
2023-04-06T08:29:36.119Z,0.80
2023-04-06T08:30:36.072Z,0.70
2023-04-06T08:31:36.150Z,0.60
2023-04-06T08:32:36.130Z,0.80
2023-04-06T08:33:36.105Z,0.90
2023-04-06T08:34:36.095Z,0.80
2023-04-06T08:35:36.039Z,0.90
2023-04-06T08:36:36.051Z,1.00
2023-04-06T08:37:35.999Z,1.00
2023-04-06T08:38:35.981Z,1.10
2023-04-06T08:39:36.019Z,1.10
2023-04-06T08:40:35.973Z,1.10
2023-04-06T08:41:35.956Z,1.20
2023-04-06T08:42:35.982Z,1.30
2023-04-06T08:43:35.928Z,1.20
2023-04-06T08:44:35.967Z,1.50
2023-04-06T08:45:35.915Z,1.30
2023-04-06T08:46:40.965Z,1.30
2023-04-06T08:47:35.971Z,1.50
2023-04-06T08:48:35.882Z,0.80
2023-04-06T08:49:35.896Z,1.00
2023-04-06T08:50:36.008Z,1.00
2023-04-06T08:51:35.868Z,1.00
2023-04-06T08:52:35.837Z,1.10
2023-04-06T08:53:35.824Z,1.10
2023-04-06T08:54:35.814Z,0.40
2023-04-06T08:55:35.804Z,0.30
2023-04-06T08:56:35.904Z,0.30
2023-04-06T08:57:35.791Z,0.40
2023-04-06T08:58:38.500Z,0.70
2023-04-06T08:59:35.845Z,0.70
2023-04-06T09:00:35.793Z,0.80
2023-04-06T09:01:35.897Z,1.00
2023-04-06T09:02:35.920Z,0.70
2023-04-06T09:03:35.861Z,0.30
2023-04-06T09:04:35.799Z,0.30
2023-04-06T09:05:35.702Z,0.20
2023-04-06T09:06:35.742Z,0.10
2023-04-06T09:07:35.681Z,0.00
2023-04-06T09:08:35.713Z,0.00
2023-04-06T09:09:35.670Z,0.00
2023-04-06T09:10:35.667Z,0.20
2023-04-06T09:11:35.644Z,0.20
2023-04-06T09:12:35.637Z,0.10
2023-04-06T09:13:35.721Z,0.10
2023-04-06T09:14:35.610Z,0.30
2023-04-06T09:15:35.694Z,0.10
2023-04-06T09:16:35.746Z,0.10
2023-04-06T09:17:35.612Z,0.30
2023-04-06T09:18:35.560Z,0.40
2023-04-06T09:19:35.601Z,0.40
2023-04-06T09:20:35.605Z,0.50
2023-04-06T09:21:35.519Z,0.80
2023-04-06T09:22:35.514Z,0.70
2023-04-06T09:23:35.597Z,0.90
2023-04-06T09:24:35.497Z,0.40
2023-04-06T09:25:35.523Z,0.40
2023-04-06T09:26:35.550Z,0.30
2023-04-06T09:27:35.473Z,0.30
2023-04-06T09:28:35.481Z,0.10
2023-04-06T09:29:35.501Z,0.10
2023-04-06T09:30:35.528Z,0.10
2023-04-06T09:31:35.579Z,0.10
2023-04-06T09:32:35.588Z,0.10
2023-04-06T09:33:35.474Z,0.10
2023-04-06T09:34:35.387Z,0.30
2023-04-06T09:35:35.417Z,0.10
2023-04-06T09:36:35.377Z,0.10
2023-04-06T09:37:35.377Z,0.10
2023-04-06T09:38:35.379Z,0.40
2023-04-06T09:39:35.340Z,0.50
2023-04-06T09:40:35.326Z,0.60
2023-04-06T09:41:35.356Z,0.70
2023-04-06T09:42:35.318Z,0.90
2023-04-06T09:43:35.299Z,1.00
2023-04-06T09:44:35.338Z,1.20
2023-04-06T09:45:35.317Z,1.50
2023-04-06T09:46:46.411Z,1.40
2023-04-06T09:47:36.371Z,0.70
2023-04-06T09:48:35.400Z,0.50
2023-04-06T09:49:35.230Z,0.60
2023-04-06T09:50:35.243Z,0.30
2023-04-06T09:51:36.180Z,0.20
2023-04-06T09:52:35.203Z,0.10
2023-04-06T09:53:35.176Z,0.10
2023-04-06T09:54:35.294Z,0.10
2023-04-06T09:55:35.188Z,0.10
2023-04-06T09:56:35.196Z,0.30
2023-04-06T09:57:35.230Z,0.50
2023-04-06T09:58:35.158Z,0.80
2023-04-06T09:59:35.195Z,0.20
2023-04-06T10:00:35.123Z,0.20
2023-04-06T10:01:35.212Z,0.10
2023-04-06T10:02:35.185Z,0.10
2023-04-06T10:03:35.158Z,0.10
2023-04-06T10:04:35.523Z,0.10
2023-04-06T10:05:35.232Z,0.10
2023-04-06T10:06:35.050Z,0.00
2023-04-06T10:07:37.172Z,0.00
2023-04-06T10:08:36.011Z,0.00
2023-04-06T10:09:35.124Z,0.00
2023-04-06T10:10:35.001Z,0.00
2023-04-06T10:11:35.039Z,0.00
2023-04-06T10:12:34.967Z,0.00
2023-04-06T10:13:34.963Z,0.00
2023-04-06T10:14:35.016Z,0.00
2023-04-06T10:15:34.980Z,0.00
2023-04-06T10:16:35.019Z,0.00
2023-04-06T10:17:34.973Z,0.00
2023-04-06T10:18:34.929Z,0.00
2023-04-06T10:19:34.905Z,0.00
2023-04-06T10:20:34.940Z,0.00
2023-04-06T10:21:34.928Z,0.00
2023-04-06T10:22:34.870Z,0.00
2023-04-06T10:23:34.854Z,0.00
2023-04-06T10:24:34.916Z,0.00
2023-04-06T10:25:34.835Z,0.20
2023-04-06T10:26:34.821Z,0.00
2023-04-06T10:27:34.854Z,0.00
2023-04-06T10:28:34.931Z,0.00
2023-04-06T10:29:34.882Z,0.00
2023-04-06T10:30:34.822Z,0.00
2023-04-06T10:31:34.793Z,0.00
2023-04-06T10:32:34.830Z,0.00
2023-04-06T10:33:34.769Z,0.30
2023-04-06T10:34:34.737Z,0.40
2023-04-06T10:35:34.748Z,0.50
2023-04-06T10:36:34.733Z,0.60
2023-04-06T10:37:34.699Z,0.80
2023-04-06T10:38:34.740Z,0.90
2023-04-06T10:39:34.779Z,1.00
2023-04-06T10:40:34.679Z,1.20
2023-04-06T10:41:34.664Z,1.30
2023-04-06T10:42:34.701Z,1.60
2023-04-06T10:43:34.762Z,2.00
2023-04-06T10:44:34.833Z,2.00
2023-04-06T10:45:34.655Z,2.10
2023-04-06T10:46:34.624Z,2.40
2023-04-06T10:47:34.677Z,2.50
2023-04-06T10:48:34.727Z,2.40
2023-04-06T10:49:34.643Z,2.60
2023-04-06T10:50:34.694Z,2.80
2023-04-06T10:51:34.560Z,2.80
2023-04-06T10:52:34.653Z,3.10
2023-04-06T10:53:34.549Z,3.20
2023-04-06T10:54:34.582Z,3.50
2023-04-06T10:55:34.603Z,3.60
2023-04-06T10:56:34.539Z,3.90
2023-04-06T10:57:34.541Z,3.90
2023-04-06T10:58:34.487Z,3.60
2023-04-06T10:59:34.625Z,2.20
2023-04-06T11:00:49.195Z,3.20
2023-04-06T11:01:35.539Z,1.80
2023-04-06T11:02:34.480Z,1.00
2023-04-06T11:03:34.460Z,0.70
2023-04-06T11:04:34.617Z,0.40
2023-04-06T11:05:34.449Z,0.30
2023-04-06T11:06:34.410Z,0.20
2023-04-06T11:07:34.421Z,0.10
2023-04-06T11:08:34.424Z,0.10
2023-04-06T11:09:34.406Z,0.10
2023-04-06T11:10:34.390Z,0.10
2023-04-06T11:11:34.341Z,0.10
2023-04-06T11:12:34.368Z,0.00
2023-04-06T11:13:34.336Z,0.00
2023-04-06T11:14:34.497Z,0.00
2023-04-06T11:15:34.317Z,0.40
2023-04-06T11:16:34.473Z,0.50
2023-04-06T11:17:34.298Z,0.60
2023-04-06T11:18:34.431Z,0.90
2023-04-06T11:19:34.293Z,1.00
2023-04-06T11:20:34.246Z,1.20
2023-04-06T11:21:34.294Z,1.40
2023-04-06T11:22:34.234Z,1.70
2023-04-06T11:23:34.209Z,1.90
2023-04-06T11:24:34.262Z,2.20
2023-04-06T11:25:34.203Z,2.30
2023-04-06T11:26:34.192Z,2.70
2023-04-06T11:27:34.201Z,2.80
2023-04-06T11:28:34.226Z,2.70
2023-04-06T11:29:34.210Z,3.20
2023-04-06T11:30:34.149Z,3.70
2023-04-06T11:31:34.162Z,3.40
2023-04-06T11:32:34.247Z,4.00
2023-04-06T11:33:34.183Z,4.10
2023-04-06T11:34:34.142Z,4.20
2023-04-06T11:35:34.132Z,3.80
2023-04-06T11:36:34.134Z,4.10
2023-04-06T11:37:34.079Z,4.20
2023-04-06T11:38:34.119Z,4.10
2023-04-06T11:39:34.097Z,4.20
2023-04-06T11:40:34.055Z,4.80
2023-04-06T11:41:34.061Z,4.40
2023-04-06T11:42:34.058Z,4.10
2023-04-06T11:43:34.079Z,1.50
2023-04-06T11:44:34.041Z,0.90
2023-04-06T11:45:34.022Z,0.60
2023-04-06T11:46:38.564Z,1.70
2023-04-06T11:47:34.237Z,1.90
2023-04-06T11:48:34.008Z,1.80
2023-04-06T11:49:34.032Z,2.20
2023-04-06T11:50:33.945Z,2.30
2023-04-06T11:51:34.026Z,2.40
2023-04-06T11:52:34.141Z,3.00
2023-04-06T11:53:33.910Z,2.70
2023-04-06T11:54:34.422Z,1.70
2023-04-06T11:55:35.089Z,0.60
2023-04-06T11:56:33.960Z,0.40
2023-04-06T11:57:33.951Z,0.30
2023-04-06T11:58:33.885Z,0.20
2023-04-06T11:59:34.074Z,0.10
2023-04-06T12:00:33.949Z,0.10
2023-04-06T12:01:38.904Z,0.10
2023-04-06T12:02:35.008Z,0.10
2023-04-06T12:03:34.129Z,0.00
2023-04-06T12:04:33.910Z,0.20
2023-04-06T12:05:33.883Z,0.50
2023-04-06T12:06:33.789Z,0.70
2023-04-06T12:07:33.851Z,0.80
2023-04-06T12:08:33.780Z,0.90
2023-04-06T12:09:33.767Z,1.10
2023-04-06T12:10:34.068Z,1.30
2023-04-06T12:11:33.760Z,1.30
2023-04-06T12:12:33.745Z,1.50
2023-04-06T12:13:33.845Z,1.80
2023-04-06T12:14:33.716Z,1.80
2023-04-06T12:15:33.784Z,1.80
2023-04-06T12:16:33.818Z,1.70
2023-04-06T12:17:33.734Z,0.90
2023-04-06T12:18:34.641Z,1.90
2023-04-06T12:19:33.623Z,0.90
2023-04-06T12:20:33.702Z,0.40
2023-04-06T12:21:33.625Z,0.30
2023-04-06T12:22:33.627Z,0.20
2023-04-06T12:23:33.582Z,1.10
2023-04-06T12:24:34.026Z,1.30
2023-04-06T12:25:33.582Z,1.40
2023-04-06T12:26:33.656Z,1.30
2023-04-06T12:27:33.574Z,1.60
2023-04-06T12:28:33.537Z,1.70
2023-04-06T12:29:33.791Z,0.40
2023-04-06T12:30:33.701Z,0.40
2023-04-06T12:31:33.643Z,0.80
2023-04-06T12:32:33.534Z,1.30
2023-04-06T12:33:33.493Z,1.20
2023-04-06T12:34:33.793Z,1.40
2023-04-06T12:35:33.645Z,1.60
2023-04-06T12:36:33.499Z,1.70
2023-04-06T12:37:33.469Z,1.80
2023-04-06T12:38:33.614Z,1.90
2023-04-06T12:39:34.510Z,2.00
2023-04-06T12:40:33.810Z,2.30
2023-04-06T12:41:33.741Z,2.20
2023-04-06T12:42:33.588Z,2.50
2023-04-06T12:43:33.519Z,0.90
2023-04-06T12:44:33.402Z,0.50
2023-04-06T12:45:33.471Z,0.80
2023-04-06T12:46:44.154Z,1.60
2023-04-06T12:47:33.413Z,1.60
2023-04-06T12:48:33.418Z,1.70
2023-04-06T12:49:33.772Z,1.80
2023-04-06T12:50:33.434Z,1.90
2023-04-06T12:51:33.295Z,1.80
2023-04-06T12:52:33.334Z,1.90
2023-04-06T12:53:33.501Z,0.40
2023-04-06T12:54:33.242Z,0.30
2023-04-06T12:55:33.235Z,0.20
2023-04-06T12:56:33.294Z,0.90
2023-04-06T12:57:33.223Z,0.20
2023-04-06T12:58:33.261Z,0.80
2023-04-06T12:59:33.322Z,1.00
2023-04-06T13:00:33.284Z,0.40
2023-04-06T13:01:33.230Z,0.10
2023-04-06T13:02:33.259Z,0.10
2023-04-06T13:03:33.161Z,0.10
2023-04-06T13:04:33.211Z,0.10
2023-04-06T13:05:33.708Z,0.00
2023-04-06T13:06:33.113Z,0.00
2023-04-06T13:07:33.175Z,0.00
2023-04-06T13:08:33.133Z,0.00
2023-04-06T13:09:33.122Z,0.10
2023-04-06T13:10:33.116Z,0.50
2023-04-06T13:11:33.119Z,0.50
2023-04-06T13:12:33.095Z,0.60
2023-04-06T13:13:33.057Z,0.70
2023-04-06T13:14:33.049Z,0.70
2023-04-06T13:15:33.147Z,0.90
2023-04-06T13:16:33.333Z,1.00
2023-04-06T13:17:33.050Z,1.10
2023-04-06T13:18:33.007Z,1.10